sensor_id;sensor_type;location;lat;lon;timestamp;pressure;altitude;pressure_sealevel;temperature;humidity
65534;BME280;53640;55.838;37.184;2023-05-13T00:00:19;99603.66;;;12.83;31.18
65534;BME280;53640;55.838;37.184;2023-05-13T00:02:45;99609.16;;;12.77;30.87
65534;BME280;53640;55.838;37.184;2023-05-13T00:05:12;99564.50;;;12.47;31.31
65534;BME280;53640;55.838;37.184;2023-05-13T00:07:38;99588.34;;;12.64;31.24
65534;BME280;53640;55.838;37.184;2023-05-13T00:10:07;99568.88;;;12.48;31.30
65534;BME280;53640;55.838;37.184;2023-05-13T00:12:33;99582.44;;;12.48;31.57
65534;BME280;53640;55.838;37.184;2023-05-13T00:14:59;99578.53;;;12.44;31.67
65534;BME280;53640;55.838;37.184;2023-05-13T00:17:26;99542.84;;;12.22;31.48
65534;BME280;53640;55.838;37.184;2023-05-13T00:19:52;99564.03;;;12.32;31.49
65534;BME280;53640;55.838;37.184;2023-05-13T00:22:19;99619.50;;;12.61;31.63
65534;BME280;53640;55.838;37.184;2023-05-13T00:24:45;99623.94;;;12.56;31.66
65534;BME280;53640;55.838;37.184;2023-05-13T00:27:16;99591.13;;;12.39;31.81
65534;BME280;53640;55.838;37.184;2023-05-13T00:29:43;99616.91;;;12.48;31.72
65534;BME280;53640;55.838;37.184;2023-05-13T00:32:09;99619.72;;;12.41;31.71
65534;BME280;53640;55.838;37.184;2023-05-13T00:34:36;99602.94;;;12.26;31.85
65534;BME280;53640;55.838;37.184;2023-05-13T00:37:02;99581.34;;;12.13;31.78
65534;BME280;53640;55.838;37.184;2023-05-13T00:39:29;99579.50;;;12.07;31.60
65534;BME280;53640;55.838;37.184;2023-05-13T00:41:56;99572.94;;;11.96;31.66
65534;BME280;53640;55.838;37.184;2023-05-13T00:44:22;99653.19;;;12.35;31.89
65534;BME280;53640;55.838;37.184;2023-05-13T00:46:48;99620.16;;;12.13;31.86
65534;BME280;53640;55.838;37.184;2023-05-13T00:49:16;99651.41;;;12.22;32.12
65534;BME280;53640;55.838;37.184;2023-05-13T00:51:43;99602.66;;;11.84;31.98
65534;BME280;53640;55.838;37.184;2023-05-13T00:54:09;99652.13;;;12.11;32.35
65534;BME280;53640;55.838;37.184;2023-05-13T00:56:37;99642.19;;;11.98;32.51
65534;BME280;53640;55.838;37.184;2023-05-13T00:59:05;99582.84;;;11.52;32.44
65534;BME280;53640;55.838;37.184;2023-05-13T01:07:53;99669.47;;;11.72;33.32
65534;BME280;53640;55.838;37.184;2023-05-13T01:10:31;99675.16;;;11.64;33.51
65534;BME280;53640;55.838;37.184;2023-05-13T01:13:06;99645.25;;;11.39;33.57
65534;BME280;53640;55.838;37.184;2023-05-13T01:15:40;99610.16;;;11.12;33.66
65534;BME280;53640;55.838;37.184;2023-05-13T01:18:15;99619.72;;;11.15;33.56
65534;BME280;53640;55.838;37.184;2023-05-13T01:20:45;99609.56;;;11.10;33.68
65534;BME280;53640;55.838;37.184;2023-05-13T01:23:11;99655.69;;;11.35;33.36
65534;BME280;53640;55.838;37.184;2023-05-13T01:25:39;99624.56;;;11.06;33.62
65534;BME280;53640;55.838;37.184;2023-05-13T01:28:07;99608.34;;;10.99;33.57
65534;BME280;53640;55.838;37.184;2023-05-13T01:30:36;99679.47;;;11.40;33.97
65534;BME280;53640;55.838;37.184;2023-05-13T01:33:04;99660.09;;;11.30;33.93
65534;BME280;53640;55.838;37.184;2023-05-13T01:35:32;99636.00;;;11.08;34.15
65534;BME280;53640;55.838;37.184;2023-05-13T01:37:59;99640.34;;;11.16;34.15
65534;BME280;53640;55.838;37.184;2023-05-13T01:40:28;99663.00;;;11.28;34.34
65534;BME280;53640;55.838;37.184;2023-05-13T01:42:55;99664.06;;;11.34;34.36
65534;BME280;53640;55.838;37.184;2023-05-13T01:45:21;99600.00;;;10.94;34.38
65534;BME280;53640;55.838;37.184;2023-05-13T01:47:48;99682.16;;;11.40;34.17
65534;BME280;53640;55.838;37.184;2023-05-13T01:50:15;99663.66;;;11.30;34.24
65534;BME280;53640;55.838;37.184;2023-05-13T01:52:42;99679.06;;;11.36;34.31
65534;BME280;53640;55.838;37.184;2023-05-13T01:55:08;99664.69;;;11.29;34.47
65534;BME280;53640;55.838;37.184;2023-05-13T01:57:35;99668.25;;;11.30;34.52
65534;BME280;53640;55.838;37.184;2023-05-13T02:00:02;99640.19;;;11.11;34.26
65534;BME280;53640;55.838;37.184;2023-05-13T02:02:40;99659.31;;;11.16;34.12
65534;BME280;53640;55.838;37.184;2023-05-13T02:05:07;99655.56;;;11.17;34.19
65534;BME280;53640;55.838;37.184;2023-05-13T02:07:34;99681.38;;;11.33;34.27
65534;BME280;53640;55.838;37.184;2023-05-13T02:10:01;99600.91;;;10.75;34.34
65534;BME280;53640;55.838;37.184;2023-05-13T02:12:28;99674.09;;;11.26;34.39
65534;BME280;53640;55.838;37.184;2023-05-13T02:14:55;99637.72;;;11.02;34.38
65534;BME280;53640;55.838;37.184;2023-05-13T02:17:22;99674.91;;;11.27;34.53
65534;BME280;53640;55.838;37.184;2023-05-13T02:19:50;99684.69;;;11.35;34.36
65534;BME280;53640;55.838;37.184;2023-05-13T02:22:17;99634.34;;;11.07;34.25
65534;BME280;53640;55.838;37.184;2023-05-13T02:24:43;99654.94;;;11.21;34.25
65534;BME280;53640;55.838;37.184;2023-05-13T02:27:10;99639.75;;;11.14;34.53
65534;BME280;53640;55.838;37.184;2023-05-13T02:29:39;99674.47;;;11.37;34.50
65534;BME280;53640;55.838;37.184;2023-05-13T02:32:06;99643.03;;;11.22;34.47
65534;BME280;53640;55.838;37.184;2023-05-13T02:34:32;99672.78;;;11.36;34.47
65534;BME280;53640;55.838;37.184;2023-05-13T02:36:59;99696.47;;;11.54;34.65
65534;BME280;53640;55.838;37.184;2023-05-13T02:39:26;99699.00;;;11.55;34.65
65534;BME280;53640;55.838;37.184;2023-05-13T02:41:56;99702.94;;;11.59;34.57
65534;BME280;53640;55.838;37.184;2023-05-13T02:44:26;99694.66;;;11.47;34.61
65534;BME280;53640;55.838;37.184;2023-05-13T02:46:52;99702.31;;;11.57;34.60
65534;BME280;53640;55.838;37.184;2023-05-13T02:49:19;99692.53;;;11.49;34.65
65534;BME280;53640;55.838;37.184;2023-05-13T02:51:45;99652.81;;;11.30;34.63
65534;BME280;53640;55.838;37.184;2023-05-13T02:54:12;99708.50;;;11.71;34.51
65534;BME280;53640;55.838;37.184;2023-05-13T02:56:38;99631.13;;;11.30;34.70
65534;BME280;53640;55.838;37.184;2023-05-13T02:59:05;99708.50;;;11.78;34.75
65534;BME280;53640;55.838;37.184;2023-05-13T03:01:32;99654.19;;;11.46;34.76
65534;BME280;53640;55.838;37.184;2023-05-13T03:03:58;99694.53;;;11.74;34.64
65534;BME280;53640;55.838;37.184;2023-05-13T03:06:25;99673.03;;;11.66;34.50
65534;BME280;53640;55.838;37.184;2023-05-13T03:08:52;99643.31;;;11.52;34.66
65534;BME280;53640;55.838;37.184;2023-05-13T03:11:18;99646.81;;;11.60;34.65
65534;BME280;53640;55.838;37.184;2023-05-13T03:13:44;99680.44;;;11.90;34.39
65534;BME280;53640;55.838;37.184;2023-05-13T03:16:13;99717.63;;;12.15;34.55
65534;BME280;53640;55.838;37.184;2023-05-13T03:18:40;99633.81;;;11.68;34.39
65534;BME280;53640;55.838;37.184;2023-05-13T03:21:06;99684.94;;;12.03;34.34
65534;BME280;53640;55.838;37.184;2023-05-13T03:23:33;99718.78;;;12.32;34.32
65534;BME280;53640;55.838;37.184;2023-05-13T03:26:00;99688.25;;;12.12;34.26
65534;BME280;53640;55.838;37.184;2023-05-13T03:28:27;99682.97;;;12.17;34.22
65534;BME280;53640;55.838;37.184;2023-05-13T03:30:53;99728.25;;;12.48;33.94
65534;BME280;53640;55.838;37.184;2023-05-13T03:33:20;99726.59;;;12.47;33.90
65534;BME280;53640;55.838;37.184;2023-05-13T03:35:47;99729.25;;;12.54;33.94
65534;BME280;53640;55.838;37.184;2023-05-13T03:38:16;99715.44;;;12.55;33.72
65534;BME280;53640;55.838;37.184;2023-05-13T03:40:46;99656.19;;;12.27;33.84
65534;BME280;53640;55.838;37.184;2023-05-13T03:43:13;99682.09;;;12.48;33.71
65534;BME280;53640;55.838;37.184;2023-05-13T03:45:43;99698.03;;;12.63;33.98
65534;BME280;53640;55.838;37.184;2023-05-13T03:48:15;99713.59;;;12.74;33.49
65534;BME280;53640;55.838;37.184;2023-05-13T03:50:44;99681.97;;;12.61;33.54
65534;BME280;53640;55.838;37.184;2023-05-13T03:53:12;99656.78;;;12.54;33.43
65534;BME280;53640;55.838;37.184;2023-05-13T03:55:40;99698.72;;;12.83;33.38
65534;BME280;53640;55.838;37.184;2023-05-13T03:58:14;99686.03;;;12.77;33.31
65534;BME280;53640;55.838;37.184;2023-05-13T04:00:42;99706.72;;;12.96;33.29
65534;BME280;53640;55.838;37.184;2023-05-13T04:03:12;99629.31;;;12.62;33.22
65534;BME280;53640;55.838;37.184;2023-05-13T04:05:40;99727.75;;;13.26;33.12
65534;BME280;53640;55.838;37.184;2023-05-13T04:08:06;99643.78;;;12.81;33.19
65534;BME280;53640;55.838;37.184;2023-05-13T04:10:33;99709.53;;;13.27;33.01
65534;BME280;53640;55.838;37.184;2023-05-13T04:12:59;99728.56;;;13.45;32.93
65534;BME280;53640;55.838;37.184;2023-05-13T04:15:27;99695.50;;;13.30;32.58
65534;BME280;53640;55.838;37.184;2023-05-13T04:17:54;99693.06;;;13.40;32.73
65534;BME280;53640;55.838;37.184;2023-05-13T04:20:20;99724.38;;;13.61;32.48
65534;BME280;53640;55.838;37.184;2023-05-13T04:22:47;99714.13;;;13.63;32.62
65534;BME280;53640;55.838;37.184;2023-05-13T04:25:14;99691.84;;;13.54;32.66
65534;BME280;53640;55.838;37.184;2023-05-13T04:27:41;99704.44;;;13.67;32.27
65534;BME280;53640;55.838;37.184;2023-05-13T04:30:14;99630.94;;;13.25;32.19
65534;BME280;53640;55.838;37.184;2023-05-13T04:32:43;99733.41;;;13.91;32.07
65534;BME280;53640;55.838;37.184;2023-05-13T04:35:11;99626.25;;;13.32;31.97
65534;BME280;53640;55.838;37.184;2023-05-13T04:37:38;99715.22;;;13.92;31.56
65534;BME280;53640;55.838;37.184;2023-05-13T04:40:08;99722.81;;;14.02;31.72
65534;BME280;53640;55.838;37.184;2023-05-13T04:42:38;99665.53;;;13.66;31.06
65534;BME280;53640;55.838;37.184;2023-05-13T04:45:05;99650.59;;;13.69;31.28
65534;BME280;53640;55.838;37.184;2023-05-13T04:47:33;99740.06;;;14.26;31.28
65534;BME280;53640;55.838;37.184;2023-05-13T04:50:01;99740.19;;;14.31;31.04
65534;BME280;53640;55.838;37.184;2023-05-13T04:52:30;99737.69;;;14.29;31.11
65534;BME280;53640;55.838;37.184;2023-05-13T04:54:57;99691.50;;;14.11;31.12
65534;BME280;53640;55.838;37.184;2023-05-13T04:57:23;99729.06;;;14.44;31.06
65534;BME280;53640;55.838;37.184;2023-05-13T04:59:50;99717.00;;;14.40;30.67
65534;BME280;53640;55.838;37.184;2023-05-13T05:02:19;99727.31;;;14.50;30.65
65534;BME280;53640;55.838;37.184;2023-05-13T05:04:46;99707.28;;;14.44;30.70
65534;BME280;53640;55.838;37.184;2023-05-13T05:07:15;99709.69;;;14.52;30.12
65534;BME280;53640;55.838;37.184;2023-05-13T05:09:41;99738.97;;;14.69;29.95
65534;BME280;53640;55.838;37.184;2023-05-13T05:12:08;99744.19;;;14.82;29.62
65534;BME280;53640;55.838;37.184;2023-05-13T05:14:36;99713.50;;;14.63;29.47
65534;BME280;53640;55.838;37.184;2023-05-13T05:17:05;99744.69;;;14.91;29.71
65534;BME280;53640;55.838;37.184;2023-05-13T05:19:31;99745.25;;;14.93;29.57
65534;BME280;53640;55.838;37.184;2023-05-13T05:21:58;99723.91;;;14.89;29.13
65534;BME280;53640;55.838;37.184;2023-05-13T05:24:25;99689.22;;;14.73;29.06
65534;BME280;53640;55.838;37.184;2023-05-13T05:26:52;99637.19;;;14.51;29.15
65534;BME280;53640;55.838;37.184;2023-05-13T05:29:19;99747.03;;;15.22;29.07
65534;BME280;53640;55.838;37.184;2023-05-13T05:31:45;99737.28;;;15.26;28.62
65534;BME280;53640;55.838;37.184;2023-05-13T05:34:13;99698.22;;;15.09;28.81
65534;BME280;53640;55.838;37.184;2023-05-13T05:36:40;99713.72;;;15.20;28.55
65534;BME280;53640;55.838;37.184;2023-05-13T05:39:07;99740.22;;;15.48;28.09
65534;BME280;53640;55.838;37.184;2023-05-13T05:41:36;99731.69;;;15.56;28.09
65534;BME280;53640;55.838;37.184;2023-05-13T05:44:02;99734.97;;;15.70;28.14
65534;BME280;53640;55.838;37.184;2023-05-13T05:46:29;99712.44;;;15.63;27.71
65534;BME280;53640;55.838;37.184;2023-05-13T05:48:56;99730.56;;;15.81;27.16
65534;BME280;53640;55.838;37.184;2023-05-13T05:51:34;99707.28;;;15.78;26.78
65534;BME280;53640;55.838;37.184;2023-05-13T05:54:10;99652.34;;;15.46;26.75
65534;BME280;53640;55.838;37.184;2023-05-13T05:56:39;99723.22;;;15.98;26.52
65534;BME280;53640;55.838;37.184;2023-05-13T05:59:05;99741.97;;;16.23;26.34
65534;BME280;53640;55.838;37.184;2023-05-13T06:01:33;99725.59;;;16.23;26.08
65534;BME280;53640;55.838;37.184;2023-05-13T06:04:04;99695.13;;;16.15;25.62
65534;BME280;53640;55.838;37.184;2023-05-13T06:06:33;99728.78;;;16.49;26.02
65534;BME280;53640;55.838;37.184;2023-05-13T06:09:00;99734.84;;;16.68;26.16
65534;BME280;53640;55.838;37.184;2023-05-13T06:11:27;99721.94;;;16.63;25.67
65534;BME280;53640;55.838;37.184;2023-05-13T06:14:02;99713.03;;;16.73;25.31
65534;BME280;53640;55.838;37.184;2023-05-13T06:16:33;99706.41;;;16.86;24.88
65534;BME280;53640;55.838;37.184;2023-05-13T06:19:00;99748.88;;;17.27;25.03
65534;BME280;53640;55.838;37.184;2023-05-13T06:21:27;99720.13;;;17.24;24.45
65534;BME280;53640;55.838;37.184;2023-05-13T06:23:53;99714.38;;;17.48;24.73
65534;BME280;53640;55.838;37.184;2023-05-13T06:26:20;99753.16;;;17.84;24.22
65534;BME280;53640;55.838;37.184;2023-05-13T06:28:48;99721.63;;;17.81;24.09
65534;BME280;53640;55.838;37.184;2023-05-13T06:31:14;99735.56;;;18.01;24.58
65534;BME280;53640;55.838;37.184;2023-05-13T06:33:43;99759.34;;;18.23;24.10
65534;BME280;53640;55.838;37.184;2023-05-13T06:36:09;99760.28;;;18.34;24.29
65534;BME280;53640;55.838;37.184;2023-05-13T06:38:39;99747.75;;;18.43;24.39
65534;BME280;53640;55.838;37.184;2023-05-13T06:41:05;99741.50;;;18.47;23.45
65534;BME280;53640;55.838;37.184;2023-05-13T06:43:34;99733.91;;;18.55;23.79
65534;BME280;53640;55.838;37.184;2023-05-13T06:46:11;99748.16;;;18.57;23.08
65534;BME280;53640;55.838;37.184;2023-05-13T06:48:38;99736.66;;;18.60;23.61
65534;BME280;53640;55.838;37.184;2023-05-13T06:51:06;99701.13;;;18.38;23.22
65534;BME280;53640;55.838;37.184;2023-05-13T06:53:33;99718.59;;;18.64;23.54
65534;BME280;53640;55.838;37.184;2023-05-13T06:55:59;99738.75;;;18.80;23.43
65534;BME280;53640;55.838;37.184;2023-05-13T06:58:25;99741.63;;;18.95;23.52
65534;BME280;53640;55.838;37.184;2023-05-13T07:00:53;99733.38;;;18.95;23.05
65534;BME280;53640;55.838;37.184;2023-05-13T07:03:20;99706.94;;;18.79;22.85
65534;BME280;53640;55.838;37.184;2023-05-13T07:05:46;99719.63;;;18.90;23.22
65534;BME280;53640;55.838;37.184;2023-05-13T07:08:13;99730.72;;;19.10;23.02
65534;BME280;53640;55.838;37.184;2023-05-13T07:10:43;99729.97;;;19.15;23.17
65534;BME280;53640;55.838;37.184;2023-05-13T07:13:10;99682.41;;;19.04;23.54
65534;BME280;53640;55.838;37.184;2023-05-13T07:15:47;99723.47;;;19.36;22.94
65534;BME280;53640;55.838;37.184;2023-05-13T07:18:13;99690.22;;;19.33;22.91
65534;BME280;53640;55.838;37.184;2023-05-13T07:20:45;99692.44;;;19.36;22.61
65534;BME280;53640;55.838;37.184;2023-05-13T07:23:15;99611.09;;;19.04;22.58
65534;BME280;53640;55.838;37.184;2023-05-13T07:25:47;99643.56;;;19.28;22.97
65534;BME280;53640;55.838;37.184;2023-05-13T07:28:15;99674.75;;;19.64;22.95
65534;BME280;53640;55.838;37.184;2023-05-13T07:30:44;99606.22;;;19.32;22.40
65534;BME280;53640;55.838;37.184;2023-05-13T07:33:13;99614.53;;;19.47;21.96
65534;BME280;53640;55.838;37.184;2023-05-13T07:35:41;99679.47;;;19.99;21.74
65534;BME280;53640;55.838;37.184;2023-05-13T07:38:09;99608.53;;;19.60;21.03
65534;BME280;53640;55.838;37.184;2023-05-13T07:40:41;99667.38;;;20.00;20.78
65534;BME280;53640;55.838;37.184;2023-05-13T07:43:19;99592.03;;;19.45;20.69
65534;BME280;53640;55.838;37.184;2023-05-13T07:45:52;99720.25;;;20.28;20.00
65534;BME280;53640;55.838;37.184;2023-05-13T07:48:35;99676.69;;;19.89;20.09
65534;BME280;53640;55.838;37.184;2023-05-13T07:51:08;99612.31;;;19.39;20.61
65534;BME280;53640;55.838;37.184;2023-05-13T07:53:36;99644.00;;;19.72;20.81
65534;BME280;53640;55.838;37.184;2023-05-13T07:56:27;99725.16;;;20.46;20.70
65534;BME280;53640;55.838;37.184;2023-05-13T07:58:54;99658.38;;;20.20;20.96
65534;BME280;53640;55.838;37.184;2023-05-13T08:01:24;99683.38;;;20.49;20.77
65534;BME280;53640;55.838;37.184;2023-05-13T08:04:11;99661.13;;;20.51;20.59
65534;BME280;53640;55.838;37.184;2023-05-13T08:06:37;99659.41;;;20.65;19.98
65534;BME280;53640;55.838;37.184;2023-05-13T08:09:04;99625.06;;;20.62;19.70
65534;BME280;53640;55.838;37.184;2023-05-13T08:11:30;99709.13;;;21.30;19.73
65534;BME280;53640;55.838;37.184;2023-05-13T08:13:56;99673.59;;;21.28;19.16
65534;BME280;53640;55.838;37.184;2023-05-13T08:16:23;99712.28;;;21.73;19.23
65534;BME280;53640;55.838;37.184;2023-05-13T08:18:49;99704.22;;;21.86;18.56
65534;BME280;53640;55.838;37.184;2023-05-13T08:21:15;99691.78;;;21.89;18.27
65534;BME280;53640;55.838;37.184;2023-05-13T08:23:42;99690.31;;;22.12;18.45
65534;BME280;53640;55.838;37.184;2023-05-13T08:26:08;99696.47;;;22.33;17.35
65534;BME280;53640;55.838;37.184;2023-05-13T08:28:34;99722.47;;;22.56;17.75
65534;BME280;53640;55.838;37.184;2023-05-13T08:31:01;99692.94;;;22.56;17.85
65534;BME280;53640;55.838;37.184;2023-05-13T08:33:29;99708.88;;;22.99;17.93
65534;BME280;53640;55.838;37.184;2023-05-13T08:35:55;99717.72;;;23.25;17.77
65534;BME280;53640;55.838;37.184;2023-05-13T08:38:22;99682.53;;;23.30;17.59
65534;BME280;53640;55.838;37.184;2023-05-13T08:40:48;99678.72;;;23.50;17.38
65534;BME280;53640;55.838;37.184;2023-05-13T08:43:15;99684.28;;;23.69;16.93
65534;BME280;53640;55.838;37.184;2023-05-13T08:45:45;99676.75;;;23.75;16.90
65534;BME280;53640;55.838;37.184;2023-05-13T08:48:15;99700.16;;;24.20;16.65
65534;BME280;53640;55.838;37.184;2023-05-13T08:50:43;99679.66;;;24.21;16.34
65534;BME280;53640;55.838;37.184;2023-05-13T08:53:11;99671.31;;;24.40;16.27
65534;BME280;53640;55.838;37.184;2023-05-13T08:55:38;99672.78;;;24.51;15.82
65534;BME280;53640;55.838;37.184;2023-05-13T08:58:06;99671.03;;;24.61;15.98
65534;BME280;53640;55.838;37.184;2023-05-13T09:00:36;99665.81;;;24.73;16.18
65534;BME280;53640;55.838;37.184;2023-05-13T09:03:02;99678.16;;;25.08;15.82
65534;BME280;53640;55.838;37.184;2023-05-13T09:05:29;99661.69;;;25.17;15.42
65534;BME280;53640;55.838;37.184;2023-05-13T09:07:56;99678.19;;;25.22;15.68
65534;BME280;53640;55.838;37.184;2023-05-13T09:10:23;99691.41;;;25.53;15.83
65534;BME280;53640;55.838;37.184;2023-05-13T09:12:51;99677.63;;;25.75;15.45
65534;BME280;53640;55.838;37.184;2023-05-13T09:15:20;99675.88;;;26.15;15.03
65534;BME280;53640;55.838;37.184;2023-05-13T09:17:49;99675.50;;;26.53;14.72
65534;BME280;53640;55.838;37.184;2023-05-13T09:20:18;99672.47;;;26.86;14.57
65534;BME280;53640;55.838;37.184;2023-05-13T09:22:49;99683.19;;;27.19;14.88
65534;BME280;53640;55.838;37.184;2023-05-13T09:25:16;99643.00;;;27.25;14.34
65534;BME280;53640;55.838;37.184;2023-05-13T09:27:47;99672.41;;;27.66;13.60
65534;BME280;53640;55.838;37.184;2023-05-13T09:30:14;99654.59;;;27.93;13.88
65534;BME280;53640;55.838;37.184;2023-05-13T09:32:41;99641.19;;;28.12;13.62
65534;BME280;53640;55.838;37.184;2023-05-13T09:35:15;99666.72;;;28.49;13.43
65534;BME280;53640;55.838;37.184;2023-05-13T09:37:45;99636.69;;;28.46;13.33
65534;BME280;53640;55.838;37.184;2023-05-13T09:40:13;99659.31;;;28.53;12.56
65534;BME280;53640;55.838;37.184;2023-05-13T09:42:42;99648.00;;;28.58;12.86
65534;BME280;53640;55.838;37.184;2023-05-13T09:45:10;99627.19;;;28.64;12.16
65534;BME280;53640;55.838;37.184;2023-05-13T09:47:40;99628.50;;;28.67;12.81
65534;BME280;53640;55.838;37.184;2023-05-13T09:50:09;99664.63;;;28.93;12.13
65534;BME280;53640;55.838;37.184;2023-05-13T09:52:37;99652.53;;;29.27;12.02
65534;BME280;53640;55.838;37.184;2023-05-13T09:55:07;99635.81;;;29.48;11.21
65534;BME280;53640;55.838;37.184;2023-05-13T09:57:35;99663.75;;;29.90;10.89
65534;BME280;53640;55.838;37.184;2023-05-13T10:00:05;99624.09;;;29.84;11.18
65534;BME280;53640;55.838;37.184;2023-05-13T10:02:44;99661.84;;;30.23;10.54
65534;BME280;53640;55.838;37.184;2023-05-13T10:05:11;99635.50;;;30.45;11.26
65534;BME280;53640;55.838;37.184;2023-05-13T10:07:38;99638.03;;;30.84;11.09
65534;BME280;53640;55.838;37.184;2023-05-13T10:10:06;99621.97;;;30.81;10.93
65534;BME280;53640;55.838;37.184;2023-05-13T10:12:36;99628.50;;;30.85;11.18
65534;BME280;53640;55.838;37.184;2023-05-13T10:15:05;99625.28;;;31.07;10.87
65534;BME280;53640;55.838;37.184;2023-05-13T10:17:34;99601.28;;;31.18;11.14
65534;BME280;53640;55.838;37.184;2023-05-13T10:20:03;99625.16;;;31.53;11.15
65534;BME280;53640;55.838;37.184;2023-05-13T10:22:32;99592.63;;;31.36;10.73
65534;BME280;53640;55.838;37.184;2023-05-13T10:25:01;99633.84;;;31.76;10.95
65534;BME280;53640;55.838;37.184;2023-05-13T10:27:32;99632.06;;;31.83;10.47
65534;BME280;53640;55.838;37.184;2023-05-13T10:30:01;99645.69;;;31.97;10.59
65534;BME280;53640;55.838;37.184;2023-05-13T10:32:32;99620.94;;;31.99;9.85
65534;BME280;53640;55.838;37.184;2023-05-13T10:35:05;99633.59;;;32.37;9.86
65534;BME280;53640;55.838;37.184;2023-05-13T10:37:59;99641.97;;;32.65;9.79
65534;BME280;53640;55.838;37.184;2023-05-13T10:43:20;99632.41;;;33.29;9.76
65534;BME280;53640;55.838;37.184;2023-05-13T10:46:01;99635.06;;;33.57;9.53
65534;BME280;53640;55.838;37.184;2023-05-13T10:48:54;99642.97;;;33.52;9.49
65534;BME280;53640;55.838;37.184;2023-05-13T10:51:24;99638.03;;;33.13;9.72
65534;BME280;53640;55.838;37.184;2023-05-13T10:53:54;99637.59;;;33.11;9.66
65534;BME280;53640;55.838;37.184;2023-05-13T10:56:23;99635.03;;;33.22;10.38
65534;BME280;53640;55.838;37.184;2023-05-13T10:58:57;99622.88;;;33.50;9.83
65534;BME280;53640;55.838;37.184;2023-05-13T11:04:02;99628.72;;;33.60;9.67
65534;BME280;53640;55.838;37.184;2023-05-13T11:06:39;99621.78;;;33.74;9.57
65534;BME280;53640;55.838;37.184;2023-05-13T11:11:46;99609.47;;;34.17;9.15
65534;BME280;53640;55.838;37.184;2023-05-13T11:14:14;99614.13;;;34.09;9.08
65534;BME280;53640;55.838;37.184;2023-05-13T11:21:55;99609.44;;;33.59;9.83
65534;BME280;53640;55.838;37.184;2023-05-13T11:24:36;99547.38;;;33.29;9.65
65534;BME280;53640;55.838;37.184;2023-05-13T11:27:23;99517.56;;;33.21;9.66
65534;BME280;53640;55.838;37.184;2023-05-13T11:33:18;99572.72;;;33.68;9.21
65534;BME280;53640;55.838;37.184;2023-05-13T11:35:52;99606.69;;;33.98;9.30
65534;BME280;53640;55.838;37.184;2023-05-13T11:38:22;99606.66;;;34.17;8.93
65534;BME280;53640;55.838;37.184;2023-05-13T11:40:50;99583.78;;;34.19;8.77
65534;BME280;53640;55.838;37.184;2023-05-13T11:43:21;99607.59;;;34.44;9.29
65534;BME280;53640;55.838;37.184;2023-05-13T11:45:47;99585.16;;;34.48;9.54
65534;BME280;53640;55.838;37.184;2023-05-13T11:48:22;99573.97;;;34.51;8.31
65534;BME280;53640;55.838;37.184;2023-05-13T11:50:49;99594.31;;;34.87;8.53
65534;BME280;53640;55.838;37.184;2023-05-13T11:53:20;99605.28;;;35.19;8.64
65534;BME280;53640;55.838;37.184;2023-05-13T11:55:49;99561.81;;;35.16;7.80
65534;BME280;53640;55.838;37.184;2023-05-13T11:58:16;99593.06;;;35.64;8.25
65534;BME280;53640;55.838;37.184;2023-05-13T12:00:43;99603.38;;;35.83;8.17
65534;BME280;53640;55.838;37.184;2023-05-13T12:03:11;99585.38;;;35.95;7.88
65534;BME280;53640;55.838;37.184;2023-05-13T12:05:38;99598.66;;;35.94;8.03
65534;BME280;53640;55.838;37.184;2023-05-13T12:08:07;99586.69;;;36.01;8.59
65534;BME280;53640;55.838;37.184;2023-05-13T12:10:43;99576.16;;;35.98;7.80
65534;BME280;53640;55.838;37.184;2023-05-13T12:13:11;99581.44;;;35.99;7.85
65534;BME280;53640;55.838;37.184;2023-05-13T12:15:38;99591.81;;;36.29;7.83
65534;BME280;53640;55.838;37.184;2023-05-13T12:18:05;99545.03;;;36.21;7.50
65534;BME280;53640;55.838;37.184;2023-05-13T12:20:32;99539.03;;;36.26;7.35
65534;BME280;53640;55.838;37.184;2023-05-13T12:23:00;99560.97;;;36.43;7.63
65534;BME280;53640;55.838;37.184;2023-05-13T12:25:43;99572.28;;;36.47;7.52
65534;BME280;53640;55.838;37.184;2023-05-13T12:28:18;99573.13;;;36.51;8.00
65534;BME280;53640;55.838;37.184;2023-05-13T12:30:54;99577.56;;;36.52;7.33
65534;BME280;53640;55.838;37.184;2023-05-13T12:33:28;99565.75;;;36.39;7.48
65534;BME280;53640;55.838;37.184;2023-05-13T12:36:23;99578.56;;;36.33;7.44
65534;BME280;53640;55.838;37.184;2023-05-13T12:39:05;99547.63;;;35.99;7.38
65534;BME280;53640;55.838;37.184;2023-05-13T12:41:39;99579.91;;;36.06;7.53
65534;BME280;53640;55.838;37.184;2023-05-13T12:44:13;99539.06;;;35.92;7.74
65534;BME280;53640;55.838;37.184;2023-05-13T12:46:52;99540.31;;;35.95;7.39
65534;BME280;53640;55.838;37.184;2023-05-13T12:49:19;99555.31;;;36.03;7.65
65534;BME280;53640;55.838;37.184;2023-05-13T12:51:57;99517.97;;;35.45;7.78
65534;BME280;53640;55.838;37.184;2023-05-13T12:54:32;99564.72;;;35.53;7.84
65534;BME280;53640;55.838;37.184;2023-05-13T12:56:58;99492.34;;;35.24;7.89
65534;BME280;53640;55.838;37.184;2023-05-13T12:59:25;99543.53;;;35.60;7.39
65534;BME280;53640;55.838;37.184;2023-05-13T13:01:54;99539.34;;;35.50;7.39
65534;BME280;53640;55.838;37.184;2023-05-13T13:04:20;99544.03;;;35.39;7.54
65534;BME280;53640;55.838;37.184;2023-05-13T13:06:48;99529.19;;;34.62;7.89
65534;BME280;53640;55.838;37.184;2023-05-13T13:09:14;99557.88;;;34.71;8.13
65534;BME280;53640;55.838;37.184;2023-05-13T13:11:41;99536.81;;;34.62;8.51
65534;BME280;53640;55.838;37.184;2023-05-13T13:14:07;99574.78;;;34.29;8.58
65534;BME280;53640;55.838;37.184;2023-05-13T13:16:33;99564.38;;;33.52;8.88
65534;BME280;53640;55.838;37.184;2023-05-13T13:19:00;99544.69;;;32.65;9.33
65534;BME280;53640;55.838;37.184;2023-05-13T13:21:26;99548.88;;;31.84;9.35
65534;BME280;53640;55.838;37.184;2023-05-13T13:23:53;99557.34;;;31.19;10.00